LIPBLJPZ

Guest
Details From LIPB - BOLZANO
To LJPZ - PORTOROZ
Flight Number -
Tags generated
Created
Modified
Stats Distance 112 nm / 208 km
Max Altitude 0 ft / 0 m
Waypoints 3
Social Downloads 4
Likes 0
Share VATSIM

Download

Looking for another format? Having issues loading an existing format? Contact us
Advertisement - Login to hide

Notes

None

Route

LIPB LAGUN LJPZ

ID Type Via Altitude Latitude Longitude Leg Dist Tot Dist Heading (true) Name
O LIPB APT - 0 ft / 0 m 46.45891˚ 11.32686˚ - 0 nm - BOLZANO
LAGUN FIX - 0 ft / 0 m 45.64028˚ 13.17694˚ 91 nm 91 nm 122° / 123° -
O LJPZ APT - 0 ft / 0 m 45.47244˚ 13.61568˚ 21 nm 112 nm 118° / 119° PORTOROZ

Altitude Profile

Advertisement - Login to hide

LIPB

Details ICAO LIPB (BZO)
Name BOLZANO
Region Italy
Timezone Europe/Rome (UTC+1.0)
Stats Elevation 789 ft / 240 m (AMSL)
Location 46.458906° 11.326862°
Runways 2
Magnetic Variation 2.990° E

METAR

LIPB 130850Z 13001KT CAVOK 00/M01 Q1019

Decode

TAF

TAF TAF LIPB 130500Z 1306/1406 VRB05KT 9999 SCT030

Decode

Departure Runways

ID Width Length Bearing (true) Bearing (mag) Surface Threshold Offset Overrun Length
01 98 ft / 30 m 4,257 ft / 1,297 m 10.21° 7.22° Asphalt 0 ft / 0 m 0 ft / 0 m
01R 66 ft / 20 m 2,292 ft / 698 m 10.57° 7.58° Grass 0 ft / 0 m 0 ft / 0 m
19 98 ft / 30 m 4,257 ft / 1,297 m 190.22° 187.23° Asphalt 200 ft / 61 m 0 ft / 0 m
19L 66 ft / 20 m 2,292 ft / 698 m 190.58° 187.59° Grass 0 ft / 0 m 0 ft / 0 m

LJPZ

Details ICAO LJPZ (POW)
Name PORTOROZ
Region Slovenia
Timezone Europe/Ljubljana (UTC+1.0)
Stats Elevation 7 ft / 2 m (AMSL)
Location 45.472445° 13.615681°
Runways 1
Magnetic Variation 3.443° E

METAR

LJPZ 130900Z 11008KT 080V150 9999 -RA FEW018 BKN025 OVC090 09/06 Q1017

Decode

TAF

Not found

Destination Runways

ID Width Length Bearing (true) Bearing (mag) Surface Threshold Offset Overrun Length
15 98 ft / 30 m 3,939 ft / 1,201 m 151.28° 147.84° Asphalt 0 ft / 0 m 0 ft / 0 m
33 98 ft / 30 m 3,939 ft / 1,201 m 331.29° 327.85° Asphalt 751 ft / 229 m 0 ft / 0 m